Terminal Aerodrome Forecast
Issued by NWS

Home | Current Version | Previous Version | Text Only | Print | Product List | Glossary On
Versions: 1 2 3 4 5 6 7 8 9 10 11 12 13 14 15
000
FTUS41 KBGM 111404 AAA
TAFRME
TAF AMD
KRME 111404Z 1114/1212 33007KT 6SM -SN OVC040
      TEMPO 1114/1116 3SM -SN OVC025
     FM111600 29007KT P6SM BKN035
     FM112200 VRB04KT P6SM BKN060
     FM120400 12006KT 3SM -SN OVC025
     FM120600 12009KT 1SM -SN OVC015=

USA.gov is the U.S. government's official web portal to all federal, state and local government web resources and services.